Time;durP1;ratioP1;P1;durP2;ratioP2;P2;SDS_P1;SDS_P2;PMS_P1;PMS_P2;Temp;Humidity;BMP_temperature;BMP_pressure;BME280_temperature;BME280_humidity;BME280_pressure;Samples;Min_cycle;Max_cycle;Signal;HPM_P1;HPM_P2
2022/04/01 00:01:59;;;;;;;2.85;2.00;;;1.80;99.90;;;;;;5116083;28;20122;-68
2022/04/01 00:04:25;;;;;;;5.78;1.42;;;1.90;99.90;;;;;;5097853;28;20050;-69
2022/04/01 00:06:50;;;;;;;4.65;1.63;;;1.90;99.90;;;;;;5115461;28;20041;-69
2022/04/01 00:09:16;;;;;;;2.85;1.50;;;2.00;99.90;;;;;;5116201;28;20143;-69
2022/04/01 00:11:41;;;;;;;2.22;1.50;;;1.80;99.90;;;;;;5116276;28;20416;-69
2022/04/01 00:14:08;;;;;;;3.03;1.30;;;1.90;99.90;;;;;;5114592;28;20485;-69
2022/04/01 00:16:34;;;;;;;4.63;2.15;;;1.90;99.90;;;;;;5115561;28;20093;-69
2022/04/01 00:18:59;;;;;;;5.05;1.70;;;1.90;99.90;;;;;;5114786;28;20432;-69
2022/04/01 00:21:25;;;;;;;3.13;1.40;;;1.90;99.90;;;;;;5114509;28;20048;-69
2022/04/01 00:23:50;;;;;;;1.63;1.05;;;2.00;99.90;;;;;;5115646;28;20519;-69
2022/04/01 00:26:16;;;;;;;4.55;1.60;;;1.90;99.90;;;;;;5114081;28;20046;-69
2022/04/01 00:28:42;;;;;;;4.60;1.42;;;2.00;99.90;;;;;;5115735;28;20039;-69
2022/04/01 00:31:09;;;;;;;2.05;1.45;;;1.90;99.90;;;;;;5115697;28;20035;-69
2022/04/01 00:33:34;;;;;;;2.85;1.55;;;1.90;99.90;;;;;;5114317;28;20043;-69
2022/04/01 00:36:00;;;;;;;3.35;1.42;;;1.90;99.90;;;;;;5113676;28;20039;-69
2022/04/01 00:38:25;;;;;;;8.73;1.52;;;2.00;99.90;;;;;;5115622;28;20078;-69
2022/04/01 00:40:51;;;;;;;1.60;1.20;;;2.00;99.90;;;;;;5114087;28;20032;-69
2022/04/01 00:43:27;;;;;;;6.10;1.73;;;2.00;99.90;;;;;;5115291;28;20083;-69
2022/04/01 00:45:54;;;;;;;3.83;1.40;;;1.90;99.90;;;;;;5113980;28;20071;-69
2022/04/01 00:48:19;;;;;;;3.50;1.45;;;2.00;99.90;;;;;;5113933;28;20172;-69
2022/04/01 00:50:45;;;;;;;3.45;1.50;;;2.00;99.90;;;;;;5115072;28;20119;-69
2022/04/01 00:53:11;;;;;;;4.25;1.45;;;2.10;99.30;;;;;;5115255;28;20042;-69
2022/04/01 00:55:37;;;;;;;3.13;1.42;;;2.20;98.40;;;;;;5113685;28;20409;-69
2022/04/01 00:58:05;;;;;;;3.97;1.58;;;2.10;99.60;;;;;;5114895;28;20047;-69
2022/04/01 01:00:31;;;;;;;1.80;1.15;;;2.10;99.40;;;;;;5114991;28;20042;-69
2022/04/01 01:02:58;;;;;;;3.17;1.65;;;2.00;99.90;;;;;;5113618;28;20039;-69
2022/04/01 01:05:24;;;;;;;1.75;1.20;;;2.10;99.40;;;;;;5114461;28;20580;-69
2022/04/01 01:07:50;;;;;;;3.53;1.55;;;2.10;99.20;;;;;;5113380;28;20043;-69
2022/04/01 01:10:18;;;;;;;4.28;1.50;;;2.20;98.90;;;;;;5114924;27;20043;-69
2022/04/01 01:12:44;;;;;;;4.72;1.60;;;2.20;98.30;;;;;;5113724;28;20075;-69
2022/04/01 01:15:13;;;;;;;2.67;1.30;;;2.10;98.80;;;;;;5114713;27;20100;-69
2022/04/01 01:17:39;;;;;;;2.95;1.15;;;2.10;97.30;;;;;;5113399;28;20085;-69
2022/04/01 01:20:12;;;;;;;3.25;1.60;;;2.20;97.30;;;;;;5114786;28;20047;-69
2022/04/01 01:22:39;;;;;;;1.90;1.08;;;2.20;97.00;;;;;;5113311;28;20051;-69
2022/04/01 01:25:09;;;;;;;4.93;1.23;;;2.30;95.60;;;;;;5114602;27;20450;-69
2022/04/01 01:27:35;;;;;;;2.00;1.10;;;2.30;94.90;;;;;;5114260;28;20047;-69
2022/04/01 01:30:04;;;;;;;4.10;1.35;;;2.20;95.30;;;;;;5114432;28;20040;-69
2022/04/01 01:32:32;;;;;;;2.10;1.10;;;2.20;94.60;;;;;;5114349;28;20043;-69
2022/04/01 01:34:58;;;;;;;4.50;1.70;;;2.30;94.50;;;;;;5114458;28;20063;-69
2022/04/01 01:37:24;;;;;;;1.77;0.95;;;2.30;94.80;;;;;;5114104;27;20043;-69
2022/04/01 01:39:50;;;;;;;4.55;1.95;;;2.30;94.70;;;;;;5112889;28;20047;-69
2022/04/01 01:42:15;;;;;;;3.80;1.45;;;2.30;94.30;;;;;;5113987;28;20052;-69
2022/04/01 01:44:42;;;;;;;3.17;1.58;;;2.30;95.20;;;;;;5112833;28;20036;-69
2022/04/01 01:47:08;;;;;;;2.08;1.00;;;2.30;95.40;;;;;;5112627;28;20097;-69
2022/04/01 01:49:34;;;;;;;3.92;1.55;;;2.20;95.50;;;;;;5112735;28;20501;-69
2022/04/01 01:54:55;;;;;;;3.67;1.38;;;2.20;97.60;;;;;;5041798;28;20045;-69
2022/04/01 01:57:23;;;;;;;2.15;1.42;;;2.20;98.60;;;;;;5112234;28;20044;-69
2022/04/01 01:59:50;;;;;;;3.13;1.45;;;2.20;99.60;;;;;;5112814;28;20035;-69
2022/04/01 02:02:17;;;;;;;5.15;1.75;;;2.30;99.90;;;;;;5113864;28;20075;-69
2022/04/01 02:04:43;;;;;;;5.07;1.35;;;2.20;99.90;;;;;;5113835;28;20063;-69
2022/04/01 02:07:10;;;;;;;2.53;1.25;;;2.20;99.90;;;;;;5112845;28;20043;-69
2022/04/01 02:09:37;;;;;;;4.95;1.25;;;2.20;99.90;;;;;;5113639;28;20046;-69
2022/04/01 02:12:04;;;;;;;8.23;2.80;;;2.30;99.90;;;;;;5113557;27;20047;-69
2022/04/01 02:14:30;;;;;;;4.22;1.20;;;2.30;99.90;;;;;;5113541;28;20051;-69
2022/04/01 02:16:57;;;;;;;4.07;1.63;;;2.30;99.90;;;;;;5113281;28;20100;-69
2022/04/01 02:19:23;;;;;;;2.85;1.33;;;2.30;99.90;;;;;;5113472;27;20042;-69
2022/04/01 02:21:51;;;;;;;3.33;1.95;;;2.30;99.90;;;;;;5113367;28;20075;-69
2022/04/01 02:24:17;;;;;;;3.13;1.40;;;2.30;99.90;;;;;;5111963;28;20489;-69
2022/04/01 02:26:45;;;;;;;3.17;1.35;;;2.30;99.90;;;;;;5111646;28;20114;-69
2022/04/01 02:29:11;;;;;;;2.22;1.42;;;2.30;99.90;;;;;;5113462;28;20111;-69
2022/04/01 02:31:37;;;;;;;2.47;1.30;;;2.20;99.90;;;;;;5112164;28;20110;-69
2022/04/01 02:34:03;;;;;;;3.78;1.85;;;2.20;99.90;;;;;;5113029;28;20039;-69
2022/04/01 02:36:28;;;;;;;2.83;1.70;;;2.20;99.90;;;;;;5111562;28;20096;-69
2022/04/01 02:38:54;;;;;;;4.18;1.42;;;2.20;99.90;;;;;;5113063;28;20075;-69
2022/04/01 02:41:21;;;;;;;2.17;1.27;;;2.20;99.90;;;;;;5112953;28;20089;-69
2022/04/01 02:43:47;;;;;;;4.38;1.30;;;2.30;99.90;;;;;;5111819;28;20040;-69
2022/04/01 02:46:13;;;;;;;2.28;1.45;;;2.30;99.90;;;;;;5112703;28;20039;-69
2022/04/01 02:48:38;;;;;;;2.78;1.40;;;2.20;99.90;;;;;;5111577;28;20413;-69
2022/04/01 02:51:04;;;;;;;4.20;1.50;;;2.30;99.90;;;;;;5112820;28;20397;-69
2022/04/01 02:53:30;;;;;;;2.75;1.45;;;2.20;99.90;;;;;;5111796;28;20488;-69
2022/04/01 02:55:55;;;;;;;3.78;1.30;;;2.20;99.90;;;;;;5112477;28;20063;-69
2022/04/01 02:58:21;;;;;;;2.92;1.70;;;2.20;99.90;;;;;;5112553;28;20039;-69
2022/04/01 03:00:47;;;;;;;2.47;1.00;;;2.30;99.90;;;;;;5112605;28;20485;-69
2022/04/01 03:03:13;;;;;;;2.50;1.30;;;2.30;99.90;;;;;;5112625;28;20051;-69
2022/04/01 03:05:42;;;;;;;4.75;1.20;;;2.20;99.90;;;;;;5111064;28;20616;-69
2022/04/01 03:08:09;;;;;;;4.15;1.40;;;2.20;99.90;;;;;;5112412;28;20121;-69
2022/04/01 03:10:36;;;;;;;3.95;1.75;;;2.30;99.90;;;;;;5112637;28;20488;-69
2022/04/01 03:13:03;;;;;;;5.45;2.03;;;2.30;99.90;;;;;;5111404;28;20390;-69
2022/04/01 03:15:29;;;;;;;3.08;1.27;;;2.40;99.90;;;;;;5110941;28;20039;-69
2022/04/01 03:17:58;;;;;;;2.33;1.30;;;2.40;99.90;;;;;;5112308;28;20621;-69
2022/04/01 03:20:25;;;;;;;2.80;1.50;;;2.50;99.90;;;;;;5111678;28;20405;-69
2022/04/01 03:22:51;;;;;;;5.00;1.70;;;2.50;99.90;;;;;;5112167;28;20405;-69
2022/04/01 03:25:19;;;;;;;2.53;1.20;;;2.50;99.90;;;;;;5112220;28;20114;-69
2022/04/01 03:27:46;;;;;;;3.05;1.02;;;2.50;99.90;;;;;;5110998;28;20027;-69
2022/04/01 03:30:13;;;;;;;1.92;1.20;;;2.50;99.90;;;;;;5112398;28;20386;-69
2022/04/01 03:32:41;;;;;;;3.17;1.63;;;2.50;99.90;;;;;;5112234;28;20093;-69
2022/04/01 03:35:09;;;;;;;4.80;1.25;;;2.40;99.90;;;;;;5110891;28;20046;-69
2022/04/01 03:37:35;;;;;;;2.53;1.33;;;2.40;99.90;;;;;;5111898;28;20036;-69
2022/04/01 03:40:01;;;;;;;3.05;1.20;;;2.40;99.90;;;;;;5110963;28;20039;-69
2022/04/01 03:42:30;;;;;;;2.72;1.00;;;2.40;99.90;;;;;;5110832;28;20046;-69
2022/04/01 03:44:58;;;;;;;3.75;1.00;;;2.40;99.90;;;;;;5112266;28;20408;-69
2022/04/01 03:47:32;;;;;;;2.75;1.20;;;2.40;99.90;;;;;;5111848;28;20035;-69
2022/04/01 03:50:00;;;;;;;5.93;1.80;;;2.40;99.90;;;;;;5112092;28;20123;-69
2022/04/01 03:52:27;;;;;;;5.25;1.33;;;2.40;99.90;;;;;;5112345;28;20032;-69
2022/04/01 03:54:56;;;;;;;2.20;1.15;;;2.40;99.90;;;;;;5111102;28;20108;-69
2022/04/01 03:57:31;;;;;;;5.35;1.48;;;2.40;99.90;;;;;;5110703;28;20143;-69
2022/04/01 03:59:58;;;;;;;4.75;1.58;;;2.40;99.90;;;;;;5110749;28;20048;-69
2022/04/01 04:02:25;;;;;;;2.97;1.33;;;2.40;99.90;;;;;;5110709;28;20497;-69
2022/04/01 04:04:54;;;;;;;5.28;1.52;;;2.40;99.90;;;;;;5112009;28;20031;-69
2022/04/01 04:07:20;;;;;;;4.57;2.63;;;2.50;99.90;;;;;;5110296;28;20047;-69
2022/04/01 04:09:46;;;;;;;9.32;1.58;;;2.50;99.90;;;;;;5110658;28;20077;-69
2022/04/01 04:12:13;;;;;;;7.78;1.83;;;2.50;99.90;;;;;;5111979;28;20078;-69
2022/04/01 04:14:42;;;;;;;5.18;1.52;;;2.50;99.90;;;;;;5093598;28;20039;-69
2022/04/01 04:17:14;;;;;;;9.13;3.28;;;2.50;99.90;;;;;;5111750;28;20048;-69
2022/04/01 04:20:02;;;;;;;2.25;1.23;;;2.50;99.80;;;;;;5110642;28;20118;-69
2022/04/01 04:22:35;;;;;;;3.95;1.30;;;2.50;99.90;;;;;;5111749;28;20080;-70
2022/04/01 04:25:10;;;;;;;2.55;1.60;;;2.60;99.80;;;;;;5111851;28;20071;-69
2022/04/01 04:27:36;;;;;;;4.45;1.23;;;2.50;99.80;;;;;;5110491;28;20041;-69
2022/04/01 04:30:11;;;;;;;3.50;1.02;;;2.50;99.60;;;;;;5111346;28;20110;-69
2022/04/01 04:32:43;;;;;;;5.57;1.40;;;2.50;99.30;;;;;;5115687;28;20073;-69
2022/04/01 04:35:10;;;;;;;4.72;1.42;;;2.50;99.80;;;;;;5114256;28;20263;-69
2022/04/01 04:37:46;;;;;;;4.40;1.63;;;2.50;99.60;;;;;;5113813;28;20054;-69
2022/04/01 04:40:15;;;;;;;3.38;1.27;;;2.50;99.10;;;;;;5115460;28;20118;-69
2022/04/01 04:42:47;;;;;;;2.42;1.23;;;2.50;99.10;;;;;;5114002;28;20039;-69
2022/04/01 04:45:18;;;;;;;2.08;1.02;;;2.50;99.30;;;;;;5115262;28;20043;-69
2022/04/01 04:47:46;;;;;;;6.88;1.95;;;2.50;99.30;;;;;;5115112;28;20630;-69
2022/04/01 04:50:12;;;;;;;5.10;1.58;;;2.50;99.40;;;;;;5115103;28;20489;-69
2022/04/01 04:52:39;;;;;;;3.88;1.20;;;2.50;99.60;;;;;;5115491;28;20039;-69
2022/04/01 04:55:10;;;;;;;5.00;1.35;;;2.50;98.90;;;;;;5115384;28;20036;-69
2022/04/01 04:57:38;;;;;;;4.05;1.33;;;2.50;99.20;;;;;;5113886;28;20047;-69
2022/04/01 05:00:05;;;;;;;2.97;1.15;;;2.50;99.30;;;;;;5115044;28;20048;-69
2022/04/01 05:03:06;;;;;;;3.50;1.48;;;2.50;99.30;;;;;;5113848;28;20062;-69
2022/04/01 05:05:51;;;;;;;3.13;1.02;;;2.50;99.20;;;;;;5114816;28;20027;-69
2022/04/01 05:08:42;;;;;;;2.95;1.10;;;2.50;99.30;;;;;;5114769;28;20032;-69
2022/04/01 05:11:22;;;;;;;5.80;2.20;;;2.50;99.60;;;;;;5113687;28;20036;-69
2022/04/01 05:14:00;;;;;;;3.42;1.60;;;2.50;99.30;;;;;;5114870;28;20036;-69
2022/04/01 05:16:49;;;;;;;5.07;1.15;;;2.50;99.10;;;;;;5114545;28;20404;-69
2022/04/01 05:19:25;;;;;;;7.20;1.63;;;2.60;98.60;;;;;;5113605;28;20513;-69
2022/04/01 05:22:05;;;;;;;1.77;1.25;;;2.60;98.40;;;;;;5113217;28;20043;-69
2022/04/01 05:24:47;;;;;;;4.53;1.50;;;2.60;98.20;;;;;;5114804;28;20046;-69
2022/04/01 05:27:25;;;;;;;2.03;1.10;;;2.60;98.10;;;;;;5112854;28;20096;-68
2022/04/01 05:30:12;;;;;;;2.33;1.13;;;2.60;98.10;;;;;;5114422;28;20061;-69
2022/04/01 05:32:57;;;;;;;3.30;1.23;;;2.60;97.80;;;;;;5110902;28;20122;-68
2022/04/01 05:35:26;;;;;;;2.67;1.10;;;2.50;98.10;;;;;;5096495;28;20035;-69
2022/04/01 05:37:52;;;;;;;3.70;1.58;;;2.50;97.90;;;;;;5114080;28;20032;-69
2022/04/01 05:40:21;;;;;;;1.48;0.98;;;2.50;98.70;;;;;;5100806;28;20454;-69
2022/04/01 05:42:48;;;;;;;3.55;1.45;;;2.50;97.90;;;;;;5091739;28;20044;-69
2022/04/01 05:45:15;;;;;;;2.30;1.05;;;2.50;98.00;;;;;;5093444;28;20039;-69
2022/04/01 05:47:41;;;;;;;5.47;1.65;;;2.60;97.50;;;;;;5092129;28;20044;-69
2022/04/01 05:50:07;;;;;;;6.28;1.48;;;2.70;96.70;;;;;;5093588;28;20089;-69
2022/04/01 05:52:34;;;;;;;4.63;1.40;;;2.60;96.30;;;;;;5092402;28;20068;-69
2022/04/01 05:55:00;;;;;;;1.63;1.10;;;2.70;95.90;;;;;;5093395;28;20151;-69
2022/04/01 05:57:26;;;;;;;2.30;1.13;;;2.70;95.90;;;;;;5095639;28;20115;-69
2022/04/01 05:59:52;;;;;;;3.72;1.73;;;2.70;95.90;;;;;;5103940;28;20462;-69
2022/04/01 06:02:46;;;;;;;3.38;1.02;;;2.70;96.10;;;;;;5092296;28;20382;-69
2022/04/01 06:05:48;;;;;;;6.30;1.80;;;2.70;96.20;;;;;;5087941;28;20048;-70
2022/04/01 06:08:53;;;;;;;8.13;1.50;;;2.70;95.70;;;;;;5084663;28;20521;-69
2022/04/01 06:11:22;;;;;;;4.15;1.60;;;2.70;95.40;;;;;;5091823;28;20063;-69
2022/04/01 06:14:16;;;;;;;2.75;1.65;;;2.80;95.60;;;;;;5091845;28;20047;-69
2022/04/01 06:16:52;;;;;;;5.90;1.50;;;2.80;95.80;;;;;;5092847;28;20032;-69
2022/04/01 06:19:29;;;;;;;5.35;1.60;;;2.80;95.30;;;;;;5091804;28;20558;-69
2022/04/01 06:22:04;;;;;;;3.83;1.92;;;2.80;95.70;;;;;;5091864;28;20405;-69
2022/04/01 06:24:55;;;;;;;3.33;1.35;;;2.80;95.50;;;;;;5111212;28;20036;-69
2022/04/01 06:27:27;;;;;;;3.65;1.15;;;2.90;95.10;;;;;;5088287;28;20100;-69
2022/04/01 06:30:09;;;;;;;2.53;1.30;;;2.80;95.40;;;;;;5091775;28;20435;-69
2022/04/01 06:32:45;;;;;;;2.10;1.13;;;2.80;95.70;;;;;;5092752;28;20124;-69
2022/04/01 06:35:28;;;;;;;3.22;1.60;;;2.90;94.80;;;;;;5091574;28;20051;-69
2022/04/01 06:37:55;;;;;;;2.35;1.17;;;2.90;94.40;;;;;;5091602;28;20482;-70
2022/04/01 06:40:23;;;;;;;4.82;1.60;;;2.90;94.60;;;;;;5092625;28;20048;-70
2022/04/01 06:42:51;;;;;;;4.57;1.25;;;3.00;93.80;;;;;;5092470;28;20097;-69
2022/04/01 06:45:17;;;;;;;3.95;1.17;;;3.00;94.10;;;;;;5100161;28;20058;-69
2022/04/01 06:47:44;;;;;;;3.28;1.25;;;3.00;93.60;;;;;;5110903;28;20488;-69
2022/04/01 06:50:20;;;;;;;4.55;1.40;;;3.00;93.90;;;;;;5094196;28;20039;-69
2022/04/01 06:52:46;;;;;;;4.68;1.30;;;3.00;94.20;;;;;;5109239;28;20110;-69
2022/04/01 06:55:12;;;;;;;4.05;1.20;;;3.00;93.60;;;;;;5111299;28;20569;-74
2022/04/01 06:57:38;;;;;;;6.60;1.30;;;3.00;93.20;;;;;;5110592;28;20039;-70
2022/04/01 07:00:08;;;;;;;2.80;1.33;;;3.00;93.90;;;;;;5112045;28;20493;-70
2022/04/01 07:02:34;;;;;;;4.90;1.67;;;3.00;93.70;;;;;;5108440;28;20040;-69
2022/04/01 07:05:00;;;;;;;4.38;1.73;;;3.00;94.10;;;;;;5112614;28;20526;-68
2022/04/01 07:07:26;;;;;;;5.07;1.40;;;3.00;94.40;;;;;;5112097;28;20035;-69
2022/04/01 07:09:52;;;;;;;4.68;1.85;;;3.10;94.40;;;;;;5111171;28;20096;-69
2022/04/01 07:12:17;;;;;;;2.35;1.08;;;3.10;93.90;;;;;;5111286;28;20040;-69
2022/04/01 07:14:43;;;;;;;5.78;1.00;;;3.10;93.50;;;;;;5112629;28;20040;-69
2022/04/01 07:17:08;;;;;;;5.63;1.50;;;3.20;93.90;;;;;;5111050;28;20043;-69
2022/04/01 07:19:34;;;;;;;1.63;1.10;;;3.20;92.80;;;;;;5112411;28;20492;-69
2022/04/01 07:22:00;;;;;;;4.40;1.33;;;3.10;93.20;;;;;;5112271;28;20501;-69
2022/04/01 07:24:26;;;;;;;6.65;1.25;;;3.20;92.80;;;;;;5111521;28;20027;-70
2022/04/01 07:26:52;;;;;;;3.67;1.33;;;3.20;90.60;;;;;;5110989;28;20039;-69
2022/04/01 07:29:18;;;;;;;3.55;1.40;;;3.30;90.20;;;;;;5110432;28;20044;-69
2022/04/01 07:34:35;;;;;;;4.15;1.75;;;3.30;90.90;;;;;;5110601;28;20036;-69
2022/04/01 07:37:00;;;;;;;4.05;1.60;;;3.20;91.10;;;;;;5111952;28;20031;-69
2022/04/01 07:39:26;;;;;;;3.92;1.23;;;3.20;90.90;;;;;;5110899;28;20042;-69
2022/04/01 07:41:52;;;;;;;6.45;1.27;;;3.30;90.70;;;;;;5112161;28;20489;-69
2022/04/01 07:44:18;;;;;;;2.85;1.30;;;3.30;91.30;;;;;;5112214;28;20046;-69
2022/04/01 07:46:44;;;;;;;5.25;1.80;;;3.20;90.90;;;;;;5111396;28;20443;-69
2022/04/01 07:49:09;;;;;;;3.22;1.65;;;3.20;91.30;;;;;;5112215;28;20044;-68
2022/04/01 07:51:35;;;;;;;4.30;1.98;;;3.20;91.30;;;;;;5112026;28;20493;-68
2022/04/01 07:54:01;;;;;;;7.70;1.98;;;3.10;92.50;;;;;;5112132;28;20038;-69
2022/04/01 07:56:30;;;;;;;3.88;1.40;;;3.00;93.40;;;;;;5110962;28;20031;-69
2022/04/01 07:58:57;;;;;;;4.43;1.95;;;3.00;93.30;;;;;;5111477;28;20524;-69
2022/04/01 08:01:23;;;;;;;2.83;1.65;;;3.00;93.70;;;;;;5109615;28;20124;-69
2022/04/01 08:03:48;;;;;;;3.83;1.70;;;3.10;93.80;;;;;;5111596;28;20126;-68
2022/04/01 08:06:14;;;;;;;3.80;1.60;;;3.00;94.30;;;;;;5113997;28;20043;-68
2022/04/01 08:08:40;;;;;;;4.30;2.08;;;2.90;95.00;;;;;;5115489;28;20055;-68
2022/04/01 08:11:06;;;;;;;6.43;2.13;;;2.90;96.10;;;;;;5115967;28;20405;-68
2022/04/01 08:13:33;;;;;;;4.90;2.45;;;2.80;96.40;;;;;;5115892;28;20043;-68
2022/04/01 08:15:59;;;;;;;3.65;1.58;;;2.90;97.10;;;;;;5114145;28;20048;-68
2022/04/01 08:18:25;;;;;;;2.50;1.63;;;2.90;97.30;;;;;;5115528;28;20032;-68
2022/04/01 08:20:51;;;;;;;2.78;1.85;;;2.90;99.90;;;;;;5114563;28;20032;-68
2022/04/01 08:23:16;;;;;;;4.05;2.05;;;2.90;99.90;;;;;;5114357;28;20061;-68
2022/04/01 08:25:42;;;;;;;2.58;1.67;;;2.90;99.90;;;;;;5113798;28;20115;-68
2022/04/01 08:28:08;;;;;;;3.47;1.98;;;2.80;99.90;;;;;;5115364;28;20177;-68
2022/04/01 08:30:34;;;;;;;5.50;2.30;;;2.70;99.90;;;;;;5115031;28;20127;-70
2022/04/01 08:33:00;;;;;;;4.85;2.20;;;2.60;99.90;;;;;;5114008;28;20465;-70
2022/04/01 08:35:26;;;;;;;5.20;2.17;;;2.50;99.90;;;;;;5115094;28;20128;-70
2022/04/01 08:37:54;;;;;;;4.63;2.45;;;2.30;99.90;;;;;;5115406;28;20035;-70
2022/04/01 08:40:20;;;;;;;4.25;3.22;;;2.40;99.90;;;;;;5115461;28;20043;-70
2022/04/01 08:42:47;;;;;;;3.45;2.20;;;2.30;99.90;;;;;;5113996;28;20070;-70
2022/04/01 08:45:12;;;;;;;7.20;2.58;;;2.20;99.90;;;;;;5115048;28;20523;-70
2022/04/01 08:47:38;;;;;;;5.82;2.72;;;2.20;99.90;;;;;;5113711;28;20067;-70
2022/04/01 08:50:05;;;;;;;6.53;3.17;;;2.10;99.90;;;;;;5115561;28;20438;-70
2022/04/01 08:52:30;;;;;;;5.68;3.20;;;1.90;99.90;;;;;;5113840;28;20572;-70
2022/04/01 08:55:03;;;;;;;7.10;3.90;;;2.00;99.90;;;;;;5115060;28;20110;-70
2022/04/01 08:57:37;;;;;;;4.53;3.50;;;2.00;99.90;;;;;;5114522;28;20075;-67
2022/04/01 09:00:23;;;;;;;5.70;3.78;;;2.10;99.90;;;;;;5114892;28;20047;-66
2022/04/01 09:03:00;;;;;;;5.75;4.72;;;2.20;99.90;;;;;;5100319;28;20153;-67
2022/04/01 09:05:26;;;;;;;11.32;4.47;;;2.30;99.90;;;;;;5114704;28;20046;-67
2022/04/01 09:08:08;;;;;;;7.30;4.43;;;2.20;99.90;;;;;;5114637;28;20032;-67
2022/04/01 09:10:57;;;;;;;8.30;4.30;;;2.20;99.90;;;;;;5114906;28;20035;-67
2022/04/01 09:13:25;;;;;;;7.60;4.15;;;2.30;99.90;;;;;;5114762;28;20157;-67
2022/04/01 09:15:52;;;;;;;7.68;4.22;;;2.30;99.90;;;;;;5113957;28;20043;-67
2022/04/01 09:18:41;;;;;;;9.23;4.53;;;2.40;99.90;;;;;;5112577;28;20562;-67
2022/04/01 09:21:09;;;;;;;8.52;4.68;;;2.30;99.90;;;;;;5094339;28;20044;-67
2022/04/01 09:23:35;;;;;;;6.72;3.80;;;2.40;99.90;;;;;;5092633;28;20040;-67
2022/04/01 09:26:01;;;;;;;8.73;4.40;;;2.50;99.90;;;;;;5093848;28;20040;-67
2022/04/01 09:28:30;;;;;;;8.57;5.20;;;2.50;99.90;;;;;;5103959;28;20119;-67
2022/04/01 09:31:03;;;;;;;6.03;3.95;;;2.50;99.90;;;;;;5113810;27;20092;-67
2022/04/01 09:33:48;;;;;;;7.35;4.63;;;2.50;99.90;;;;;;5093953;28;20048;-67
2022/04/01 09:36:26;;;;;;;7.18;3.20;;;2.50;99.90;;;;;;5093655;28;20041;-68
2022/04/01 09:38:56;;;;;;;6.00;3.55;;;2.50;99.90;;;;;;5111977;28;20039;-67
2022/04/01 09:41:29;;;;;;;9.60;3.95;;;2.50;99.90;;;;;;5113559;28;20035;-67
2022/04/01 09:44:02;;;;;;;;;;;2.40;99.90;;;;;;5113838;28;20068;-67
2022/04/01 09:46:27;;;;;;;4.60;3.30;;;2.40;99.90;;;;;;5110991;28;19954;-67
2022/04/01 09:48:57;;;;;;;7.25;3.78;;;2.40;99.90;;;;;;5114148;28;20035;-67
2022/04/01 09:51:23;;;;;;;8.00;3.90;;;2.50;99.90;;;;;;5114141;28;20047;-67
2022/04/01 09:53:53;;;;;;;5.85;3.83;;;2.50;99.90;;;;;;5113540;28;20043;-67
2022/04/01 09:56:35;;;;;;;7.75;3.72;;;2.60;99.90;;;;;;5113495;28;20035;-67
2022/04/01 09:59:01;;;;;;;6.30;3.90;;;2.70;99.90;;;;;;5112664;28;20047;-68
2022/04/01 10:01:27;;;;;;;6.72;4.55;;;2.80;99.90;;;;;;5113550;27;20039;-67
2022/04/01 10:03:53;;;;;;;8.93;4.60;;;2.90;99.90;;;;;;5113198;28;20512;-67
2022/04/01 10:06:18;;;;;;;4.20;2.95;;;2.90;99.90;;;;;;5113132;28;20076;-67
2022/04/01 10:08:45;;;;;;;5.80;3.20;;;3.00;99.90;;;;;;5113224;28;20074;-67
2022/04/01 10:11:11;;;;;;;7.07;3.03;;;3.00;99.90;;;;;;5113613;28;20036;-67
2022/04/01 10:13:37;;;;;;;5.32;2.63;;;3.00;99.90;;;;;;5112178;28;20176;-67
2022/04/01 10:16:07;;;;;;;8.48;3.53;;;3.10;99.90;;;;;;5113229;28;20110;-67
2022/04/01 10:18:34;;;;;;;5.72;3.33;;;3.10;99.90;;;;;;5113113;27;20038;-71
2022/04/01 10:21:01;;;;;;;6.68;3.42;;;3.20;99.90;;;;;;5113311;28;20052;-70
2022/04/01 10:23:27;;;;;;;9.43;3.20;;;3.20;99.90;;;;;;5112095;28;20477;-70
2022/04/01 10:26:14;;;;;;;7.75;3.15;;;3.10;99.90;;;;;;5111819;28;20071;-70
2022/04/01 10:28:43;;;;;;;4.47;2.65;;;3.20;99.90;;;;;;5111981;28;20050;-70
2022/04/01 10:31:13;;;;;;;6.53;3.00;;;3.10;99.90;;;;;;5113424;28;20416;-70
2022/04/01 10:33:39;;;;;;;7.25;2.70;;;3.10;99.90;;;;;;5113094;28;20092;-70
2022/04/01 10:36:23;;;;;;;5.10;2.40;;;3.10;99.90;;;;;;5111733;28;20118;-71
2022/04/01 10:38:58;;;;;;;3.58;2.50;;;3.00;99.90;;;;;;5111971;28;20048;-70
2022/04/01 10:41:23;;;;;;;3.90;2.55;;;3.00;99.90;;;;;;5113009;28;20413;-70
2022/04/01 10:43:54;;;;;;;7.28;2.50;;;3.10;99.90;;;;;;5111148;28;20043;-71
2022/04/01 10:46:20;;;;;;;4.45;2.42;;;3.00;99.90;;;;;;5108630;28;20042;-71
2022/04/01 10:52:11;;;;;;;4.00;2.40;;;2.80;99.90;;;;;;5111657;28;20055;-70
2022/04/01 10:54:42;;;;;;;6.65;2.38;;;2.80;99.90;;;;;;5113108;28;20039;-71
2022/04/01 10:57:10;;;;;;;4.45;2.75;;;2.70;99.90;;;;;;5111464;28;20067;-71
2022/04/01 10:59:39;;;;;;;5.65;2.75;;;2.80;99.90;;;;;;5112950;28;20400;-70
2022/04/01 11:02:07;;;;;;;6.45;2.72;;;2.90;99.90;;;;;;5112597;28;20044;-70
2022/04/01 11:04:38;;;;;;;4.50;2.30;;;2.90;99.90;;;;;;5111275;28;20071;-70
2022/04/01 11:09:49;;;;;;;4.53;2.20;;;2.90;99.90;;;;;;5114522;22;20052;-77
2022/04/01 11:12:15;;;;;;;5.20;2.00;;;3.00;99.90;;;;;;5074296;28;20040;-76
2022/04/01 11:14:59;;;;;;;4.95;1.85;;;3.00;99.90;;;;;;5057368;28;20501;-76
2022/04/01 11:17:27;;;;;;;3.25;2.22;;;3.10;99.90;;;;;;5073322;28;20040;-77
2022/04/01 11:20:07;;;;;;;4.38;2.20;;;3.00;99.90;;;;;;5055733;28;20413;-77
2022/04/01 11:22:37;;;;;;;4.93;2.42;;;3.10;99.90;;;;;;5092367;28;20047;-78
2022/04/01 11:25:04;;;;;;;3.13;1.63;;;3.30;99.90;;;;;;5058200;28;20039;-78
2022/04/01 11:27:30;;;;;;;6.30;2.00;;;3.50;99.90;;;;;;5078633;28;20079;-78
2022/04/01 11:30:15;;;;;;;5.32;2.10;;;3.60;99.90;;;;;;5078822;28;20067;-77
2022/04/01 11:32:47;;;;;;;5.28;2.03;;;3.60;99.90;;;;;;5074488;28;20092;-77
2022/04/01 11:35:16;;;;;;;2.85;1.90;;;3.70;99.90;;;;;;5074272;28;20036;-77
2022/04/01 11:37:44;;;;;;;4.50;2.10;;;3.70;99.90;;;;;;5073881;28;20464;-77
2022/04/01 11:40:16;;;;;;;5.57;2.05;;;3.80;99.90;;;;;;5083567;28;20447;-77
2022/04/01 11:42:56;;;;;;;6.47;2.28;;;4.00;99.90;;;;;;5067650;28;20044;-76
2022/04/01 11:45:23;;;;;;;3.22;1.48;;;4.10;99.90;;;;;;5056557;28;20104;-77
2022/04/01 11:47:48;;;;;;;7.68;1.98;;;4.10;99.90;;;;;;5062212;28;20119;-77
2022/04/01 11:50:20;;;;;;;4.18;2.03;;;4.10;99.90;;;;;;5053868;28;20032;-78
2022/04/01 11:52:52;;;;;;;6.30;2.28;;;4.20;99.90;;;;;;5053190;28;20048;-76
2022/04/01 11:55:24;;;;;;;4.55;2.20;;;4.10;99.90;;;;;;5036156;28;20075;-79
2022/04/01 11:57:52;;;;;;;7.93;2.63;;;4.40;99.90;;;;;;5053086;28;20043;-77
2022/04/01 12:00:21;;;;;;;3.92;2.22;;;4.40;99.90;;;;;;5053305;28;20126;-77
2022/04/01 12:02:48;;;;;;;3.20;2.15;;;4.50;99.90;;;;;;5054777;28;20040;-76
2022/04/01 12:05:14;;;;;;;3.10;1.58;;;4.60;99.90;;;;;;5053455;28;20044;-78
2022/04/01 12:10:27;;;;;;;4.53;2.22;;;4.70;95.60;;;;;;5055373;28;20044;-77
2022/04/01 12:12:54;;;;;;;4.25;1.98;;;4.70;95.00;;;;;;5054364;28;20080;-76
2022/04/01 12:15:31;;;;;;;3.20;1.58;;;4.90;94.00;;;;;;5052584;28;20036;-75
2022/04/01 12:17:57;;;;;;;4.10;1.73;;;5.00;90.90;;;;;;5035862;28;20059;-76
2022/04/01 12:20:23;;;;;;;2.45;1.25;;;5.00;87.80;;;;;;5060454;28;20052;-77
2022/04/01 12:22:52;;;;;;;5.35;1.60;;;5.00;82.90;;;;;;5036601;28;20041;-76
2022/04/01 12:25:19;;;;;;;5.60;1.50;;;5.00;79.80;;;;;;5052733;28;20066;-76
2022/04/01 12:28:12;;;;;;;4.10;1.60;;;4.80;78.10;;;;;;5052752;28;20047;-79
2022/04/01 12:30:38;;;;;;;4.53;1.35;;;4.90;77.00;;;;;;5048688;28;20075;-76
2022/04/01 12:33:20;;;;;;;3.65;2.10;;;4.80;77.50;;;;;;5053235;28;20127;-75
2022/04/01 12:35:49;;;;;;;3.20;1.50;;;4.80;73.90;;;;;;5052855;28;20036;-77
2022/04/01 12:38:15;;;;;;;3.35;2.13;;;4.80;75.60;;;;;;5036433;28;20131;-77
2022/04/01 12:40:44;;;;;;;5.30;2.47;;;4.90;78.30;;;;;;5052502;28;20051;-76
2022/04/01 12:43:43;;;;;;;4.38;2.25;;;4.90;80.90;;;;;;5052504;28;20052;-77
2022/04/01 12:46:38;;;;;;;2.92;2.03;;;4.90;79.60;;;;;;5045572;28;20409;-77
2022/04/01 12:49:18;;;;;;;5.80;2.63;;;5.00;84.20;;;;;;5037983;28;20048;-77
2022/04/01 12:51:57;;;;;;;11.63;3.25;;;4.90;81.00;;;;;;5054230;28;20367;-77
2022/04/01 12:54:33;;;;;;;16.40;2.65;;;4.90;80.00;;;;;;5040093;28;20046;-75
2022/04/01 12:57:00;;;;;;;3.67;1.90;;;5.00;80.00;;;;;;5057354;28;20040;-76
2022/04/01 12:59:26;;;;;;;3.17;1.88;;;5.10;78.70;;;;;;5057097;28;20041;-78
2022/04/01 13:02:06;;;;;;;6.90;2.03;;;5.10;79.10;;;;;;5064201;28;20039;-77
2022/04/01 13:04:50;;;;;;;3.88;2.30;;;5.20;79.40;;;;;;5071037;28;20028;-77
2022/04/01 13:07:22;;;;;;;3.90;1.98;;;5.10;79.00;;;;;;5068880;28;20119;-76
2022/04/01 13:09:55;;;;;;;3.88;1.83;;;5.20;78.70;;;;;;5052872;28;20036;-79
2022/04/01 13:12:28;;;;;;;6.40;1.88;;;5.10;79.30;;;;;;5057787;28;20042;-80
2022/04/01 13:15:03;;;;;;;5.97;2.30;;;5.10;78.40;;;;;;5061837;28;20048;-79
2022/04/01 13:17:38;;;;;;;4.90;2.13;;;5.10;75.50;;;;;;5062263;28;20040;-78
2022/04/01 13:20:04;;;;;;;5.28;1.52;;;5.20;74.30;;;;;;5060188;28;20033;-80
2022/04/01 13:22:30;;;;;;;5.78;2.05;;;5.20;73.90;;;;;;5056993;28;20117;-77
2022/04/01 13:24:55;;;;;;;5.43;2.33;;;5.30;74.60;;;;;;5073409;28;20457;-77
2022/04/01 13:27:22;;;;;;;4.78;2.22;;;5.30;76.00;;;;;;5055507;28;20039;-78